createdAt,value
2019-02-22T00:00:38.137Z,8.70
2019-02-22T00:03:08.355Z,8.30
2019-02-22T00:05:38.981Z,8.20
2019-02-22T00:08:09.215Z,8.20
2019-02-22T00:10:39.758Z,8.40
2019-02-22T00:13:10.019Z,8.40
2019-02-22T00:15:40.387Z,8.40
2019-02-22T00:18:10.857Z,8.30
2019-02-22T00:20:41.396Z,8.60
2019-02-22T00:23:11.817Z,8.00
2019-02-22T00:25:42.102Z,8.30
2019-02-22T00:28:15.579Z,8.20
2019-02-22T00:30:46.027Z,8.20
2019-02-22T00:33:16.577Z,8.00
2019-02-22T00:35:46.927Z,8.30
2019-02-22T00:38:17.480Z,8.20
2019-02-22T00:40:47.680Z,8.40
2019-02-22T00:43:18.064Z,8.10
2019-02-22T00:45:48.321Z,8.20
2019-02-22T00:48:18.552Z,8.20
2019-02-22T00:50:48.777Z,8.40
2019-02-22T00:53:19.086Z,8.50
2019-02-22T00:55:49.362Z,8.60
2019-02-22T00:58:19.604Z,8.30
2019-02-22T01:00:49.896Z,8.20
2019-02-22T01:03:20.086Z,8.00
2019-02-22T01:05:50.374Z,8.30
2019-02-22T01:08:20.590Z,8.20
2019-02-22T01:10:51.341Z,8.20
2019-02-22T01:13:24.463Z,8.30
2019-02-22T01:15:55.574Z,8.10
2019-02-22T01:18:25.820Z,8.10
2019-02-22T01:20:56.122Z,8.10
2019-02-22T01:23:26.656Z,8.30
2019-02-22T01:25:57.760Z,8.00
2019-02-22T01:28:27.974Z,8.00
2019-02-22T01:30:58.178Z,8.20
2019-02-22T01:33:28.737Z,8.50
2019-02-22T01:35:58.983Z,8.40
2019-02-22T01:38:29.506Z,8.40
2019-02-22T01:41:02.111Z,8.50
2019-02-22T01:43:33.468Z,8.10
2019-02-22T01:46:03.956Z,8.10
2019-02-22T01:48:34.184Z,8.00
2019-02-22T01:51:04.820Z,8.10
2019-02-22T01:53:35.101Z,8.10
2019-02-22T01:56:05.612Z,8.00
2019-02-22T01:58:35.890Z,8.30
2019-02-22T02:01:12.232Z,8.30
2019-02-22T02:03:42.425Z,8.00
2019-02-22T02:06:12.951Z,8.00
2019-02-22T02:08:43.380Z,8.10
2019-02-22T02:11:13.617Z,8.40
2019-02-22T02:13:44.227Z,8.20
2019-02-22T02:16:14.866Z,8.10
2019-02-22T02:18:45.043Z,8.20
2019-02-22T02:21:15.277Z,8.20
2019-02-22T02:23:45.835Z,8.10
2019-02-22T02:26:16.604Z,8.40
2019-02-22T02:28:46.867Z,8.10
2019-02-22T02:31:17.064Z,8.10
2019-02-22T02:33:48.236Z,8.20
2019-02-22T02:36:18.488Z,8.20
2019-02-22T02:38:48.953Z,8.00
2019-02-22T02:41:19.195Z,7.80
2019-02-22T02:43:49.737Z,7.80
2019-02-22T02:46:19.971Z,8.10
2019-02-22T02:48:50.901Z,8.20
2019-02-22T02:51:21.145Z,7.70
2019-02-22T02:53:51.391Z,8.30
2019-02-22T02:56:21.622Z,8.10
2019-02-22T02:58:51.893Z,8.10
2019-02-22T03:01:22.142Z,8.10
2019-02-22T03:03:52.348Z,8.40
2019-02-22T03:06:29.575Z,8.10
2019-02-22T03:09:00.294Z,8.50
2019-02-22T03:11:30.778Z,8.40
2019-02-22T03:14:01.827Z,8.10
2019-02-22T03:16:32.146Z,8.10
2019-02-22T03:19:02.748Z,8.20
2019-02-22T03:21:33.269Z,8.20
2019-02-22T03:24:03.894Z,8.20
2019-02-22T03:26:34.565Z,7.90
2019-02-22T03:29:05.412Z,8.00
2019-02-22T03:31:36.029Z,8.20
2019-02-22T03:34:06.238Z,8.20
2019-02-22T03:36:36.595Z,8.30
2019-02-22T03:39:08.189Z,8.10
2019-02-22T03:41:39.064Z,8.00
2019-02-22T03:44:09.337Z,8.10
2019-02-22T03:46:39.626Z,8.20
2019-02-22T03:49:09.935Z,8.00
2019-02-22T03:51:40.788Z,8.00
2019-02-22T03:54:11.370Z,7.80
2019-02-22T03:56:41.788Z,7.90
2019-02-22T03:59:12.351Z,8.00
2019-02-22T04:01:43.235Z,8.30
2019-02-22T04:04:13.746Z,7.90
2019-02-22T04:06:43.991Z,7.80
2019-02-22T04:09:14.197Z,8.20
2019-02-22T04:11:46.129Z,8.00
2019-02-22T04:14:16.833Z,7.90
2019-02-22T04:16:47.102Z,7.80
2019-02-22T04:19:17.359Z,8.30
2019-02-22T04:21:48.320Z,8.40
2019-02-22T04:24:18.512Z,8.00
2019-02-22T04:26:49.177Z,8.20
2019-02-22T04:29:19.399Z,8.40
2019-02-22T04:31:49.742Z,8.80
2019-02-22T04:34:20.351Z,8.50
2019-02-22T04:36:50.637Z,8.10
2019-02-22T04:39:20.801Z,8.20
2019-02-22T04:41:58.064Z,8.30
2019-02-22T04:44:22.873Z,8.20
2019-02-22T04:46:53.083Z,7.90
2019-02-22T04:49:23.377Z,7.90
2019-02-22T04:51:54.059Z,8.00
2019-02-22T04:54:24.269Z,8.50
2019-02-22T04:56:54.499Z,8.30
2019-02-22T04:59:24.738Z,8.30
2019-02-22T05:01:55.321Z,8.40
2019-02-22T05:04:25.559Z,8.10
2019-02-22T05:06:56.180Z,8.20
2019-02-22T05:09:26.458Z,7.70
2019-02-22T05:12:10.066Z,8.00
2019-02-22T05:14:30.051Z,7.80
2019-02-22T05:17:00.534Z,8.00
2019-02-22T05:19:30.754Z,7.80
2019-02-22T05:22:01.397Z,7.80
2019-02-22T05:24:31.635Z,7.80
2019-02-22T05:27:02.178Z,7.70
2019-02-22T05:29:33.064Z,7.60
2019-02-22T05:32:03.554Z,7.70
2019-02-22T05:34:33.824Z,7.70
2019-02-22T05:37:04.460Z,8.00
2019-02-22T05:39:35.216Z,8.10
2019-02-22T05:42:06.076Z,8.10
2019-02-22T05:44:36.441Z,8.10
2019-02-22T05:47:07.019Z,7.80
2019-02-22T05:49:37.268Z,7.90
2019-02-22T05:52:07.484Z,7.90
2019-02-22T05:54:37.794Z,7.70
2019-02-22T05:57:07.987Z,8.00
2019-02-22T05:59:38.378Z,7.80
2019-02-22T06:02:08.583Z,7.90
2019-02-22T06:04:39.473Z,7.60
2019-02-22T06:07:10.064Z,7.50
2019-02-22T06:09:40.294Z,7.80
2019-02-22T06:12:10.569Z,8.20
2019-02-22T06:14:40.889Z,8.10
2019-02-22T06:17:14.580Z,8.00
2019-02-22T06:19:43.460Z,7.90
2019-02-22T06:22:13.785Z,7.90
2019-02-22T06:24:44.530Z,8.30
2019-02-22T06:27:15.165Z,8.30
2019-02-22T06:29:45.479Z,7.80
2019-02-22T06:32:15.984Z,7.90
2019-02-22T06:34:46.279Z,7.60
2019-02-22T06:37:16.720Z,7.70
2019-02-22T06:39:47.434Z,7.60
2019-02-22T06:42:18.781Z,7.80
2019-02-22T06:44:49.869Z,7.80
2019-02-22T06:47:22.742Z,7.90
2019-02-22T06:49:52.684Z,7.90
2019-02-22T06:52:23.142Z,7.80
2019-02-22T06:54:53.429Z,8.10
2019-02-22T06:57:24.185Z,7.80
2019-02-22T06:59:55.055Z,7.90
2019-02-22T07:02:25.458Z,8.00
2019-02-22T07:04:55.987Z,7.50
2019-02-22T07:07:26.685Z,7.80
2019-02-22T07:09:57.954Z,7.60
2019-02-22T07:12:34.863Z,7.70
2019-02-22T07:15:06.053Z,8.00
2019-02-22T07:17:36.410Z,7.70
2019-02-22T07:20:08.260Z,7.60
2019-02-22T07:22:42.127Z,7.60
2019-02-22T07:25:12.414Z,7.60
2019-02-22T07:27:43.756Z,8.00
2019-02-22T07:30:14.813Z,8.20
2019-02-22T07:32:45.354Z,8.00
2019-02-22T07:35:15.665Z,8.00
2019-02-22T07:37:46.185Z,7.50
2019-02-22T07:40:16.710Z,7.60
2019-02-22T07:42:47.419Z,7.80
2019-02-22T07:45:17.772Z,7.70
2019-02-22T07:47:48.094Z,7.60
2019-02-22T07:50:19.200Z,7.50
2019-02-22T07:52:49.586Z,7.60
2019-02-22T07:55:19.918Z,7.40
2019-02-22T07:57:50.345Z,7.50
2019-02-22T08:00:20.876Z,7.50
2019-02-22T08:02:51.599Z,7.50
2019-02-22T08:05:22.015Z,7.60
2019-02-22T08:07:56.246Z,7.50
2019-02-22T08:10:26.558Z,7.70
2019-02-22T08:12:56.956Z,7.80
2019-02-22T08:15:27.728Z,7.80
2019-02-22T08:17:58.171Z,7.60
2019-02-22T08:20:28.448Z,7.80
2019-02-22T08:22:58.764Z,7.90
2019-02-22T08:25:29.141Z,7.60
2019-02-22T08:27:59.452Z,7.80
2019-02-22T08:30:29.935Z,7.90
2019-02-22T08:33:00.274Z,8.10
2019-02-22T08:35:32.547Z,8.10
2019-02-22T08:38:03.018Z,7.90
2019-02-22T08:40:33.766Z,8.20
2019-02-22T08:43:04.081Z,8.20
2019-02-22T08:45:34.819Z,8.20
2019-02-22T08:48:05.186Z,7.80
2019-02-22T08:50:35.590Z,8.20
2019-02-22T08:53:06.165Z,8.40
2019-02-22T08:55:36.842Z,8.20
2019-02-22T08:58:07.291Z,8.20
2019-02-22T09:00:37.693Z,8.20
2019-02-22T09:03:08.063Z,8.10
2019-02-22T09:05:38.392Z,8.30
2019-02-22T09:08:09.051Z,8.40
2019-02-22T09:10:39.372Z,8.50
2019-02-22T09:13:09.890Z,8.40
2019-02-22T09:15:40.251Z,8.20
2019-02-22T09:18:10.628Z,8.60
2019-02-22T09:20:42.709Z,8.20
2019-02-22T09:23:13.038Z,8.20
2019-02-22T09:25:43.346Z,8.00
2019-02-22T09:28:16.081Z,8.30
2019-02-22T09:30:47.387Z,8.20
2019-02-22T09:33:17.723Z,8.30
2019-02-22T09:35:48.340Z,8.20
2019-02-22T09:38:25.074Z,8.30
2019-02-22T09:40:56.540Z,8.40
2019-02-22T09:43:29.957Z,8.40
2019-02-22T09:46:00.336Z,8.50
2019-02-22T09:48:34.552Z,8.40
2019-02-22T09:51:05.196Z,8.80
2019-02-22T09:53:35.602Z,8.90
2019-02-22T09:56:06.371Z,9.10
2019-02-22T09:58:36.770Z,9.20
2019-02-22T10:01:07.226Z,8.90
2019-02-22T10:03:37.886Z,9.00
2019-02-22T10:06:08.493Z,8.90
2019-02-22T10:08:39.374Z,8.80
2019-02-22T10:11:09.898Z,8.40
2019-02-22T10:13:41.555Z,8.40
2019-02-22T10:16:14.088Z,8.70
2019-02-22T10:18:46.279Z,9.00
2019-02-22T10:21:16.926Z,8.80
2019-02-22T10:23:47.996Z,8.70
2019-02-22T10:26:21.310Z,8.70
2019-02-22T10:28:50.969Z,8.80
2019-02-22T10:31:21.256Z,9.00
2019-02-22T10:33:52.237Z,8.80
2019-02-22T10:36:22.681Z,8.80
2019-02-22T10:38:55.223Z,8.90
2019-02-22T10:41:26.352Z,9.00
2019-02-22T10:43:56.965Z,9.10
2019-02-22T10:46:33.023Z,9.30
2019-02-22T10:49:04.928Z,9.30
2019-02-22T10:51:37.616Z,9.50
2019-02-22T10:54:08.721Z,9.40
2019-02-22T10:56:40.033Z,9.50
2019-02-22T10:59:10.467Z,9.80
2019-02-22T11:01:40.847Z,9.60
2019-02-22T11:04:13.934Z,10.10
2019-02-22T11:06:44.294Z,10.10
2019-02-22T11:09:17.466Z,10.20
2019-02-22T11:11:48.124Z,10.50
2019-02-22T11:14:28.767Z,10.30
2019-02-22T11:16:51.318Z,10.30
2019-02-22T11:19:22.065Z,10.20
2019-02-22T11:21:52.449Z,10.00
2019-02-22T11:24:24.954Z,10.10
2019-02-22T11:26:55.685Z,10.20
2019-02-22T11:29:26.749Z,10.60
2019-02-22T11:31:58.132Z,10.50
2019-02-22T11:34:28.542Z,10.60
2019-02-22T11:36:59.251Z,10.60
2019-02-22T11:39:29.599Z,10.90
2019-02-22T11:42:00.033Z,10.90
2019-02-22T11:44:39.897Z,10.60
2019-02-22T11:47:04.337Z,10.80
2019-02-22T11:49:34.635Z,10.80
2019-02-22T11:52:05.185Z,10.80
2019-02-22T11:54:35.595Z,10.90
2019-02-22T11:57:08.874Z,11.00
2019-02-22T11:59:39.348Z,11.00
2019-02-22T12:02:09.692Z,11.00
2019-02-22T12:04:40.048Z,11.20
2019-02-22T12:07:11.091Z,11.40
2019-02-22T12:09:42.247Z,11.40
2019-02-22T12:12:12.864Z,11.60
2019-02-22T12:14:51.065Z,11.90
2019-02-22T12:17:15.918Z,11.40
2019-02-22T12:19:47.039Z,11.70
2019-02-22T12:22:17.937Z,11.70
2019-02-22T12:24:49.466Z,11.70
2019-02-22T12:27:19.880Z,11.70
2019-02-22T12:29:52.441Z,11.30
2019-02-22T12:32:22.682Z,11.30
2019-02-22T12:34:53.563Z,11.10
2019-02-22T12:37:24.531Z,10.80
2019-02-22T12:39:54.869Z,10.90
2019-02-22T12:42:25.678Z,11.00
2019-02-22T12:45:02.982Z,11.20
2019-02-22T12:47:30.384Z,11.50
2019-02-22T12:50:00.871Z,11.40
2019-02-22T12:52:34.237Z,11.40
2019-02-22T12:55:05.331Z,11.20
2019-02-22T12:57:35.741Z,11.10
2019-02-22T13:00:07.472Z,11.30
2019-02-22T13:02:38.535Z,11.40
2019-02-22T13:05:11.201Z,11.30
2019-02-22T13:07:41.508Z,11.70
2019-02-22T13:10:12.007Z,11.70
2019-02-22T13:12:42.754Z,12.00
2019-02-22T13:15:14.499Z,12.30
2019-02-22T13:17:47.456Z,12.40
2019-02-22T13:20:17.852Z,12.60
2019-02-22T13:22:48.595Z,12.80
2019-02-22T13:25:19.195Z,12.60
2019-02-22T13:27:50.097Z,12.30
2019-02-22T13:30:21.259Z,12.30
2019-02-22T13:32:51.696Z,12.40
2019-02-22T13:35:22.138Z,12.50
2019-02-22T13:37:52.630Z,12.60
2019-02-22T13:40:26.041Z,12.40
2019-02-22T13:42:57.662Z,12.50
2019-02-22T13:45:28.036Z,12.20
2019-02-22T13:48:01.007Z,12.40
2019-02-22T13:50:32.352Z,12.40
2019-02-22T13:53:02.856Z,11.90
2019-02-22T13:55:35.658Z,12.20
2019-02-22T13:58:06.700Z,12.00
2019-02-22T14:00:37.237Z,12.00
2019-02-22T14:03:10.057Z,12.00
2019-02-22T14:05:40.369Z,12.10
2019-02-22T14:08:11.482Z,12.40
2019-02-22T14:10:41.853Z,12.40
2019-02-22T14:13:12.248Z,12.40
2019-02-22T14:15:42.974Z,12.10
2019-02-22T14:18:13.628Z,11.90
2019-02-22T14:20:44.114Z,11.90
2019-02-22T14:23:14.764Z,12.00
2019-02-22T14:25:45.202Z,12.10
2019-02-22T14:28:16.182Z,12.00
2019-02-22T14:30:48.578Z,11.80
2019-02-22T14:33:22.660Z,11.70
2019-02-22T14:35:56.420Z,11.60
2019-02-22T14:38:29.130Z,11.70
2019-02-22T14:40:59.814Z,11.50
2019-02-22T14:43:30.256Z,11.20
2019-02-22T14:46:00.932Z,11.60
2019-02-22T14:48:33.419Z,11.60
2019-02-22T14:51:05.913Z,11.70
2019-02-22T14:53:36.700Z,11.50
2019-02-22T14:56:12.083Z,11.40
2019-02-22T14:58:43.405Z,11.40
2019-02-22T15:01:13.829Z,11.60
2019-02-22T15:03:44.325Z,11.60
2019-02-22T15:06:23.600Z,11.80
2019-02-22T15:08:54.130Z,12.00
2019-02-22T15:11:24.826Z,12.30
2019-02-22T15:13:56.118Z,12.10
2019-02-22T15:16:43.771Z,12.30
2019-02-22T15:19:16.387Z,12.10
2019-02-22T15:21:50.652Z,12.40
2019-02-22T15:24:21.569Z,12.80
2019-02-22T15:26:53.979Z,12.40
2019-02-22T15:29:25.595Z,12.40
2019-02-22T15:31:58.840Z,12.70
2019-02-22T15:34:30.437Z,12.50
2019-02-22T15:37:03.733Z,12.40
2019-02-22T15:39:34.218Z,12.70
2019-02-22T15:42:04.679Z,12.70
2019-02-22T15:44:35.903Z,12.80
2019-02-22T15:47:11.818Z,12.70
2019-02-22T15:49:40.255Z,12.40
2019-02-22T15:52:14.242Z,12.60
2019-02-22T15:54:44.716Z,12.50
2019-02-22T15:57:15.890Z,12.50
2019-02-22T15:59:47.184Z,12.40
2019-02-22T16:02:17.857Z,12.80
2019-02-22T16:04:51.791Z,12.80
2019-02-22T16:07:22.038Z,12.70
2019-02-22T16:09:52.477Z,12.60
2019-02-22T16:12:22.820Z,12.50
2019-02-22T16:14:53.079Z,12.50
2019-02-22T16:17:23.659Z,12.40
2019-02-22T16:19:53.909Z,12.40
2019-02-22T16:22:24.646Z,12.20
2019-02-22T16:24:54.909Z,12.10
2019-02-22T16:27:25.775Z,12.10
2019-02-22T16:29:57.885Z,12.00
2019-02-22T16:32:29.648Z,12.00
2019-02-22T16:35:00.348Z,11.90
2019-02-22T16:37:31.250Z,11.90
2019-02-22T16:40:01.516Z,11.90
2019-02-22T16:42:31.925Z,12.00
2019-02-22T16:45:04.999Z,11.90
2019-02-22T16:47:40.094Z,12.00
2019-02-22T16:50:07.472Z,11.70
2019-02-22T16:52:37.762Z,11.70
2019-02-22T16:55:10.342Z,11.70
2019-02-22T16:57:40.633Z,11.80
2019-02-22T17:00:12.838Z,11.80
2019-02-22T17:02:43.119Z,11.70
2019-02-22T17:05:14.485Z,11.60
2019-02-22T17:07:45.812Z,11.60
2019-02-22T17:10:16.070Z,11.40
2019-02-22T17:12:46.388Z,11.50
2019-02-22T17:15:16.800Z,11.30
2019-02-22T17:17:48.155Z,11.20
2019-02-22T17:20:18.579Z,11.10
2019-02-22T17:22:48.756Z,11.10
2019-02-22T17:25:19.070Z,11.50
2019-02-22T17:27:49.616Z,11.40
2019-02-22T17:30:20.207Z,11.30
2019-02-22T17:32:50.548Z,11.30
2019-02-22T17:35:20.774Z,11.10
2019-02-22T17:37:51.030Z,11.20
2019-02-22T17:40:21.966Z,10.90
2019-02-22T17:42:52.208Z,11.20
2019-02-22T17:45:22.549Z,11.10
2019-02-22T17:47:52.780Z,11.40
2019-02-22T17:50:23.432Z,11.20
2019-02-22T17:52:53.647Z,11.20
2019-02-22T17:55:24.486Z,10.90
2019-02-22T17:57:54.754Z,11.20
2019-02-22T18:00:26.341Z,11.00
2019-02-22T18:03:25.883Z,10.90
2019-02-22T18:05:56.442Z,10.70
2019-02-22T18:08:27.341Z,10.80
2019-02-22T18:10:57.561Z,10.60
2019-02-22T18:13:27.797Z,10.50
2019-02-22T18:15:58.446Z,10.60
2019-02-22T18:18:29.102Z,10.30
2019-02-22T18:20:59.357Z,10.20
2019-02-22T18:23:29.603Z,10.40
2019-02-22T18:26:00.117Z,10.50
2019-02-22T18:28:30.599Z,10.50
2019-02-22T18:31:00.837Z,10.40
2019-02-22T18:33:31.114Z,9.90
2019-02-22T18:36:01.867Z,10.10
2019-02-22T18:38:32.101Z,10.00
2019-02-22T18:41:02.329Z,9.90
2019-02-22T18:43:32.548Z,9.80
2019-02-22T18:46:03.479Z,10.00
2019-02-22T18:48:34.143Z,9.70
2019-02-22T18:51:05.270Z,9.80
2019-02-22T18:53:35.520Z,10.30
2019-02-22T18:56:06.196Z,10.00
2019-02-22T18:58:36.692Z,9.80
2019-02-22T19:01:06.962Z,9.60
2019-02-22T19:03:37.173Z,9.70
2019-02-22T19:06:07.728Z,9.50
2019-02-22T19:08:38.004Z,9.60
2019-02-22T19:11:08.214Z,9.80
2019-02-22T19:13:38.424Z,9.70
2019-02-22T19:16:08.743Z,9.40
2019-02-22T19:18:40.003Z,9.50
2019-02-22T19:21:10.264Z,9.50
2019-02-22T19:23:40.424Z,9.30
2019-02-22T19:26:10.657Z,9.20
2019-02-22T19:28:40.791Z,9.00
2019-02-22T19:31:11.419Z,9.10
2019-02-22T19:33:41.644Z,9.00
2019-02-22T19:36:11.853Z,8.90
2019-02-22T19:38:42.044Z,9.00
2019-02-22T19:41:12.213Z,8.90
2019-02-22T19:43:42.519Z,9.10
2019-02-22T19:46:13.025Z,9.00
2019-02-22T19:48:43.517Z,9.10
2019-02-22T19:51:13.704Z,8.70
2019-02-22T19:53:43.897Z,8.80
2019-02-22T19:56:14.453Z,8.70
2019-02-22T19:58:45.091Z,8.50
2019-02-22T20:01:15.314Z,8.70
2019-02-22T20:03:45.550Z,8.70
2019-02-22T20:06:15.856Z,8.70
2019-02-22T20:08:46.056Z,8.60
2019-02-22T20:11:16.455Z,8.50
2019-02-22T20:13:46.678Z,8.40
2019-02-22T20:16:17.398Z,8.60
2019-02-22T20:18:47.615Z,8.10
2019-02-22T20:21:17.875Z,8.30
2019-02-22T20:23:48.124Z,8.10
2019-02-22T20:26:18.609Z,8.40
2019-02-22T20:28:49.243Z,8.10
2019-02-22T20:31:20.597Z,8.10
2019-02-22T20:33:51.444Z,8.10
2019-02-22T20:36:28.395Z,8.00
2019-02-22T20:38:53.796Z,8.70
2019-02-22T20:41:23.980Z,8.30
2019-02-22T20:43:54.207Z,8.50
2019-02-22T20:46:24.398Z,8.70
2019-02-22T20:49:00.760Z,8.40
2019-02-22T20:51:27.577Z,8.40
2019-02-22T20:53:58.068Z,8.70
2019-02-22T20:56:29.002Z,8.30
2019-02-22T20:59:00.100Z,8.40
2019-02-22T21:01:30.561Z,8.20
2019-02-22T21:04:00.816Z,8.00
2019-02-22T21:06:31.287Z,7.90
2019-02-22T21:09:01.561Z,8.20
2019-02-22T21:11:32.488Z,7.70
2019-02-22T21:14:03.201Z,8.00
2019-02-22T21:16:33.759Z,7.80
2019-02-22T21:19:04.050Z,7.80
2019-02-22T21:21:34.597Z,7.70
2019-02-22T21:24:04.928Z,7.70
2019-02-22T21:26:35.638Z,7.90
2019-02-22T21:29:05.912Z,8.00
2019-02-22T21:31:36.834Z,8.00
2019-02-22T21:34:07.044Z,8.00
2019-02-22T21:36:37.538Z,7.90
2019-02-22T21:39:07.906Z,7.80
2019-02-22T21:41:39.286Z,7.60
2019-02-22T21:44:09.561Z,7.70
2019-02-22T21:46:40.458Z,7.70
2019-02-22T21:49:11.044Z,7.60
2019-02-22T21:51:43.170Z,7.40
2019-02-22T21:54:13.927Z,7.60
2019-02-22T21:56:44.551Z,7.40
2019-02-22T21:59:15.475Z,7.10
2019-02-22T22:01:46.565Z,7.20
2019-02-22T22:04:17.225Z,7.00
2019-02-22T22:06:48.286Z,7.00
2019-02-22T22:09:19.228Z,7.30
2019-02-22T22:11:50.780Z,7.40
2019-02-22T22:14:22.049Z,7.20
2019-02-22T22:16:53.875Z,7.20
2019-02-22T22:19:24.977Z,7.20
2019-02-22T22:21:55.816Z,7.40
2019-02-22T22:24:26.427Z,7.40
2019-02-22T22:26:57.005Z,7.70
2019-02-22T22:29:27.933Z,7.80
2019-02-22T22:31:58.654Z,7.80
2019-02-22T22:34:29.396Z,7.70
2019-02-22T22:36:59.992Z,7.60
2019-02-22T22:39:31.009Z,7.60
2019-02-22T22:42:02.117Z,7.70
2019-02-22T22:44:32.755Z,7.50
2019-02-22T22:47:03.746Z,7.40
2019-02-22T22:49:35.051Z,7.50
2019-02-22T22:52:05.931Z,7.50
2019-02-22T22:54:36.638Z,7.40
2019-02-22T22:57:07.412Z,7.80
2019-02-22T22:59:38.048Z,7.40
2019-02-22T23:02:09.407Z,7.50
2019-02-22T23:04:40.372Z,7.50
2019-02-22T23:07:11.286Z,7.40
2019-02-22T23:09:42.782Z,7.50
2019-02-22T23:12:13.368Z,7.40
2019-02-22T23:14:44.828Z,7.70
2019-02-22T23:17:15.728Z,7.40
2019-02-22T23:19:47.739Z,7.50
2019-02-22T23:22:19.842Z,7.30
2019-02-22T23:24:52.202Z,7.40
2019-02-22T23:27:24.930Z,7.70
2019-02-22T23:29:57.220Z,7.60
2019-02-22T23:32:29.579Z,7.60
2019-02-22T23:35:01.569Z,7.70
2019-02-22T23:37:33.534Z,7.80
2019-02-22T23:40:06.336Z,7.40
2019-02-22T23:42:38.776Z,7.60
2019-02-22T23:45:10.853Z,7.50
2019-02-22T23:47:43.196Z,7.70
2019-02-22T23:50:15.157Z,7.90
2019-02-22T23:52:47.029Z,7.80
2019-02-22T23:55:19.413Z,7.70
2019-02-22T23:57:51.463Z,7.50
